sensor_id;sensor_type;location;lat;lon;timestamp;pressure;altitude;pressure_sealevel;temperature;humidity
82743;BME280;72483;50.656;7.216;2024-01-15T00:00:00;99778.59;;;18.31;41.17
82743;BME280;72483;50.656;7.216;2024-01-15T00:02:28;99770.25;;;18.31;41.49
82743;BME280;72483;50.656;7.216;2024-01-15T00:04:55;99766.63;;;18.30;41.10
82743;BME280;72483;50.656;7.216;2024-01-15T00:07:21;99754.66;;;18.30;41.40
82743;BME280;72483;50.656;7.216;2024-01-15T00:09:48;99754.66;;;18.30;41.53
82743;BME280;72483;50.656;7.216;2024-01-15T00:12:14;99753.81;;;18.29;41.27
82743;BME280;72483;50.656;7.216;2024-01-15T00:14:41;99753.31;;;18.27;41.12
82743;BME280;72483;50.656;7.216;2024-01-15T00:17:09;99743.00;;;18.28;41.34
82743;BME280;72483;50.656;7.216;2024-01-15T00:19:36;99745.44;;;18.29;41.63
82743;BME280;72483;50.656;7.216;2024-01-15T00:22:03;99736.59;;;18.27;41.34
82743;BME280;72483;50.656;7.216;2024-01-15T00:24:29;99729.06;;;18.28;41.60
82743;BME280;72483;50.656;7.216;2024-01-15T00:26:56;99731.84;;;18.28;41.30
82743;BME280;72483;50.656;7.216;2024-01-15T00:29:22;99728.53;;;18.26;41.40
82743;BME280;72483;50.656;7.216;2024-01-15T00:31:49;99717.69;;;18.24;41.27
82743;BME280;72483;50.656;7.216;2024-01-15T00:34:17;99717.38;;;18.26;40.91
82743;BME280;72483;50.656;7.216;2024-01-15T00:36:43;99710.97;;;18.25;41.14
82743;BME280;72483;50.656;7.216;2024-01-15T00:39:10;99715.22;;;18.23;41.43
82743;BME280;72483;50.656;7.216;2024-01-15T00:41:37;99709.34;;;18.24;41.38
82743;BME280;72483;50.656;7.216;2024-01-15T00:44:03;99714.59;;;18.26;41.03
82743;BME280;72483;50.656;7.216;2024-01-15T00:46:30;99714.91;;;18.24;41.07
82743;BME280;72483;50.656;7.216;2024-01-15T00:48:56;99722.44;;;18.24;40.85
82743;BME280;72483;50.656;7.216;2024-01-15T00:51:24;99711.94;;;18.21;41.25
82743;BME280;72483;50.656;7.216;2024-01-15T00:53:50;99715.22;;;18.23;41.15
82743;BME280;72483;50.656;7.216;2024-01-15T00:56:17;99707.69;;;18.23;41.32
82743;BME280;72483;50.656;7.216;2024-01-15T00:58:43;99718.34;;;18.21;41.39
82743;BME280;72483;50.656;7.216;2024-01-15T01:01:10;99721.91;;;18.22;41.08
82743;BME280;72483;50.656;7.216;2024-01-15T01:03:36;99719.13;;;18.22;41.37
82743;BME280;72483;50.656;7.216;2024-01-15T01:06:03;99714.72;;;18.21;41.21
82743;BME280;72483;50.656;7.216;2024-01-15T01:08:31;99707.47;;;18.20;40.94
82743;BME280;72483;50.656;7.216;2024-01-15T01:10:58;99701.41;;;18.18;41.40
82743;BME280;72483;50.656;7.216;2024-01-15T01:13:25;99709.44;;;18.19;41.07
82743;BME280;72483;50.656;7.216;2024-01-15T01:15:51;99697.47;;;18.19;41.00
82743;BME280;72483;50.656;7.216;2024-01-15T01:18:18;99697.47;;;18.19;40.88
82743;BME280;72483;50.656;7.216;2024-01-15T01:20:44;99695.00;;;18.17;41.33
82743;BME280;72483;50.656;7.216;2024-01-15T01:23:11;99699.75;;;18.17;40.81
82743;BME280;72483;50.656;7.216;2024-01-15T01:25:38;99690.88;;;18.15;41.22
82743;BME280;72483;50.656;7.216;2024-01-15T01:28:05;99696.13;;;18.16;40.80
82743;BME280;72483;50.656;7.216;2024-01-15T01:30:32;99697.78;;;18.17;40.72
82743;BME280;72483;50.656;7.216;2024-01-15T01:32:58;99703.66;;;18.16;41.11
82743;BME280;72483;50.656;7.216;2024-01-15T01:35:25;99695.31;;;18.16;40.91
82743;BME280;72483;50.656;7.216;2024-01-15T01:37:51;99698.09;;;18.16;40.75
82743;BME280;72483;50.656;7.216;2024-01-15T01:40:18;99704.50;;;18.16;40.83
82743;BME280;72483;50.656;7.216;2024-01-15T01:42:45;99700.38;;;18.13;40.85
82743;BME280;72483;50.656;7.216;2024-01-15T01:45:12;99696.75;;;18.13;40.96
82743;BME280;72483;50.656;7.216;2024-01-15T01:47:38;99695.94;;;18.12;41.02
82743;BME280;72483;50.656;7.216;2024-01-15T01:50:06;99700.38;;;18.13;40.95
82743;BME280;72483;50.656;7.216;2024-01-15T01:52:33;99703.50;;;18.12;40.84
82743;BME280;72483;50.656;7.216;2024-01-15T01:55:00;99701.00;;;18.10;40.67
82743;BME280;72483;50.656;7.216;2024-01-15T01:57:28;99702.97;;;18.10;40.68
82743;BME280;72483;50.656;7.216;2024-01-15T01:59:57;99697.72;;;18.08;40.55
82743;BME280;72483;50.656;7.216;2024-01-15T02:02:24;99706.06;;;18.08;40.63
82743;BME280;72483;50.656;7.216;2024-01-15T02:04:52;99703.28;;;18.08;40.59
82743;BME280;72483;50.656;7.216;2024-01-15T02:07:19;99700.78;;;18.07;41.04
82743;BME280;72483;50.656;7.216;2024-01-15T02:09:45;99700.28;;;18.05;40.50
82743;BME280;72483;50.656;7.216;2024-01-15T02:12:12;99699.97;;;18.06;40.88
82743;BME280;72483;50.656;7.216;2024-01-15T02:14:39;99696.34;;;18.06;40.84
82743;BME280;72483;50.656;7.216;2024-01-15T02:17:07;99711.13;;;18.06;40.68
82743;BME280;72483;50.656;7.216;2024-01-15T02:19:33;99699.47;;;18.04;40.99
82743;BME280;72483;50.656;7.216;2024-01-15T02:22:00;99698.63;;;18.04;40.74
82743;BME280;72483;50.656;7.216;2024-01-15T02:24:28;99700.59;;;18.03;40.84
82743;BME280;72483;50.656;7.216;2024-01-15T02:26:55;99700.59;;;18.03;40.88
82743;BME280;72483;50.656;7.216;2024-01-15T02:29:22;99702.56;;;18.03;40.70
82743;BME280;72483;50.656;7.216;2024-01-15T02:31:48;99706.16;;;18.03;40.98
82743;BME280;72483;50.656;7.216;2024-01-15T02:34:15;99702.56;;;18.03;40.50
82743;BME280;72483;50.656;7.216;2024-01-15T02:36:41;99703.38;;;18.03;40.69
82743;BME280;72483;50.656;7.216;2024-01-15T02:39:08;99698.97;;;18.02;40.66
82743;BME280;72483;50.656;7.216;2024-01-15T02:41:36;99710.13;;;18.02;40.51
82743;BME280;72483;50.656;7.216;2024-01-15T02:44:02;99706.50;;;18.02;40.45
82743;BME280;72483;50.656;7.216;2024-01-15T02:46:29;99703.72;;;18.02;40.47
82743;BME280;72483;50.656;7.216;2024-01-15T02:48:55;99704.84;;;18.01;40.66
82743;BME280;72483;50.656;7.216;2024-01-15T02:51:22;99702.88;;;18.01;40.45
82743;BME280;72483;50.656;7.216;2024-01-15T02:53:55;99704.00;;;18.00;40.36
82743;BME280;72483;50.656;7.216;2024-01-15T02:56:21;99703.19;;;18.00;40.46
82743;BME280;72483;50.656;7.216;2024-01-15T02:58:49;99703.19;;;18.00;40.66
82743;BME280;72483;50.656;7.216;2024-01-15T03:01:18;99711.53;;;18.00;40.37
82743;BME280;72483;50.656;7.216;2024-01-15T03:03:44;99711.53;;;18.00;40.75
82743;BME280;72483;50.656;7.216;2024-01-15T03:06:11;99706.78;;;18.00;40.81
82743;BME280;72483;50.656;7.216;2024-01-15T03:08:37;99702.38;;;17.99;40.78
82743;BME280;72483;50.656;7.216;2024-01-15T03:11:04;99705.16;;;17.99;40.83
82743;BME280;72483;50.656;7.216;2024-01-15T03:13:31;99699.59;;;17.99;40.73
82743;BME280;72483;50.656;7.216;2024-01-15T03:15:59;99705.16;;;17.99;40.63
82743;BME280;72483;50.656;7.216;2024-01-15T03:18:25;99699.59;;;17.99;40.44
82743;BME280;72483;50.656;7.216;2024-01-15T03:20:52;99701.56;;;17.99;40.44
82743;BME280;72483;50.656;7.216;2024-01-15T03:23:18;99699.88;;;17.98;40.50
82743;BME280;72483;50.656;7.216;2024-01-15T03:25:45;99703.50;;;17.98;40.54
82743;BME280;72483;50.656;7.216;2024-01-15T03:28:11;99696.81;;;17.99;40.93
82743;BME280;72483;50.656;7.216;2024-01-15T03:30:38;99698.75;;;17.99;40.78
82743;BME280;72483;50.656;7.216;2024-01-15T03:33:06;99705.97;;;18.00;40.59
82743;BME280;72483;50.656;7.216;2024-01-15T03:35:32;99699.59;;;17.99;40.51
82743;BME280;72483;50.656;7.216;2024-01-15T03:37:59;99693.19;;;17.99;40.54
82743;BME280;72483;50.656;7.216;2024-01-15T03:40:25;99696.81;;;17.99;40.63
82743;BME280;72483;50.656;7.216;2024-01-15T03:42:53;99692.03;;;18.00;40.66
82743;BME280;72483;50.656;7.216;2024-01-15T03:45:19;99690.41;;;17.99;40.47
82743;BME280;72483;50.656;7.216;2024-01-15T03:47:46;99692.03;;;18.00;40.56
82743;BME280;72483;50.656;7.216;2024-01-15T03:50:14;99691.22;;;17.99;40.64
82743;BME280;72483;50.656;7.216;2024-01-15T03:52:40;99693.19;;;17.99;40.42
82743;BME280;72483;50.656;7.216;2024-01-15T03:55:07;99685.66;;;17.99;40.71
82743;BME280;72483;50.656;7.216;2024-01-15T03:57:34;99681.22;;;17.98;40.63
82743;BME280;72483;50.656;7.216;2024-01-15T04:00:00;99691.53;;;17.98;40.74
82743;BME280;72483;50.656;7.216;2024-01-15T04:02:27;99690.41;;;17.99;40.50
82743;BME280;72483;50.656;7.216;2024-01-15T04:04:53;99684.84;;;17.99;40.43
82743;BME280;72483;50.656;7.216;2024-01-15T04:07:21;99683.16;;;17.98;40.57
82743;BME280;72483;50.656;7.216;2024-01-15T04:09:47;99690.69;;;17.97;40.59
82743;BME280;72483;50.656;7.216;2024-01-15T04:12:15;99693.19;;;17.99;40.56
82743;BME280;72483;50.656;7.216;2024-01-15T04:14:41;99686.28;;;17.96;40.54
82743;BME280;72483;50.656;7.216;2024-01-15T04:17:08;99683.16;;;17.98;40.46
82743;BME280;72483;50.656;7.216;2024-01-15T04:19:34;99683.50;;;17.96;40.57
82743;BME280;72483;50.656;7.216;2024-01-15T04:22:00;99683.50;;;17.96;40.46
82743;BME280;72483;50.656;7.216;2024-01-15T04:24:28;99679.56;;;17.97;40.35
82743;BME280;72483;50.656;7.216;2024-01-15T04:26:59;99673.97;;;17.97;40.71
82743;BME280;72483;50.656;7.216;2024-01-15T04:29:26;99671.53;;;17.96;40.58
82743;BME280;72483;50.656;7.216;2024-01-15T04:31:53;99668.75;;;17.96;40.71
82743;BME280;72483;50.656;7.216;2024-01-15T04:34:19;99664.00;;;17.96;40.27
82743;BME280;72483;50.656;7.216;2024-01-15T04:36:46;99664.00;;;17.96;40.26
82743;BME280;72483;50.656;7.216;2024-01-15T04:39:12;99652.84;;;17.96;40.39
82743;BME280;72483;50.656;7.216;2024-01-15T04:41:40;99659.56;;;17.95;40.36
82743;BME280;72483;50.656;7.216;2024-01-15T04:44:06;99659.56;;;17.95;40.65
82743;BME280;72483;50.656;7.216;2024-01-15T04:46:33;99663.16;;;17.96;40.54
82743;BME280;72483;50.656;7.216;2024-01-15T04:48:59;99664.00;;;17.96;40.59
82743;BME280;72483;50.656;7.216;2024-01-15T04:51:26;99665.63;;;17.97;40.62
82743;BME280;72483;50.656;7.216;2024-01-15T04:53:52;99660.38;;;17.96;40.28
82743;BME280;72483;50.656;7.216;2024-01-15T04:56:19;99662.34;;;17.95;40.59
82743;BME280;72483;50.656;7.216;2024-01-15T04:58:47;99654.28;;;17.94;40.72
82743;BME280;72483;50.656;7.216;2024-01-15T05:01:15;99652.31;;;17.94;40.52
82743;BME280;72483;50.656;7.216;2024-01-15T05:03:42;99657.59;;;17.96;40.72
82743;BME280;72483;50.656;7.216;2024-01-15T05:06:08;99658.72;;;17.95;40.51
82743;BME280;72483;50.656;7.216;2024-01-15T05:08:35;99651.50;;;17.94;40.77
82743;BME280;72483;50.656;7.216;2024-01-15T05:11:02;99643.47;;;17.92;40.43
82743;BME280;72483;50.656;7.216;2024-01-15T05:13:28;99649.03;;;17.92;40.72
82743;BME280;72483;50.656;7.216;2024-01-15T05:15:56;99647.38;;;17.91;40.49
82743;BME280;72483;50.656;7.216;2024-01-15T05:18:22;99646.25;;;17.92;40.46
82743;BME280;72483;50.656;7.216;2024-01-15T05:20:49;99643.75;;;17.91;40.74
82743;BME280;72483;50.656;7.216;2024-01-15T05:23:15;99646.53;;;17.91;40.54
82743;BME280;72483;50.656;7.216;2024-01-15T05:25:42;99641.81;;;17.91;40.87
82743;BME280;72483;50.656;7.216;2024-01-15T05:28:08;99641.31;;;17.89;40.69
82743;BME280;72483;50.656;7.216;2024-01-15T05:30:36;99638.53;;;17.89;40.80
82743;BME280;72483;50.656;7.216;2024-01-15T05:33:04;99638.81;;;17.88;40.93
82743;BME280;72483;50.656;7.216;2024-01-15T05:35:32;99634.06;;;17.88;40.51
82743;BME280;72483;50.656;7.216;2024-01-15T05:37:58;99638.53;;;17.89;40.85
82743;BME280;72483;50.656;7.216;2024-01-15T05:40:25;99637.34;;;17.90;40.46
82743;BME280;72483;50.656;7.216;2024-01-15T05:42:51;99634.28;;;17.92;40.45
82743;BME280;72483;50.656;7.216;2024-01-15T05:45:18;99641.19;;;17.94;40.31
82743;BME280;72483;50.656;7.216;2024-01-15T05:47:45;99636.94;;;17.97;40.16
82743;BME280;72483;50.656;7.216;2024-01-15T05:50:12;99646.13;;;17.97;40.37
82743;BME280;72483;50.656;7.216;2024-01-15T05:52:39;99643.53;;;18.01;40.12
82743;BME280;72483;50.656;7.216;2024-01-15T05:55:06;99644.03;;;18.03;40.05
82743;BME280;72483;50.656;7.216;2024-01-15T05:57:33;99645.06;;;18.07;40.05
82743;BME280;72483;50.656;7.216;2024-01-15T05:59:59;99640.53;;;18.11;40.02
82743;BME280;72483;50.656;7.216;2024-01-15T06:02:26;99642.69;;;18.14;40.15
82743;BME280;72483;50.656;7.216;2024-01-15T06:04:52;99645.13;;;18.16;40.03
82743;BME280;72483;50.656;7.216;2024-01-15T06:07:20;99642.53;;;18.19;39.82
82743;BME280;72483;50.656;7.216;2024-01-15T06:09:48;99647.50;;;18.22;40.06
82743;BME280;72483;50.656;7.216;2024-01-15T06:12:14;99635.22;;;18.23;40.22
82743;BME280;72483;50.656;7.216;2024-01-15T06:14:41;99637.38;;;18.26;40.09
82743;BME280;72483;50.656;7.216;2024-01-15T06:17:07;99634.78;;;18.30;40.10
82743;BME280;72483;50.656;7.216;2024-01-15T06:19:34;99639.72;;;18.33;40.19
82743;BME280;72483;50.656;7.216;2024-01-15T06:22:00;99634.63;;;18.35;39.74
82743;BME280;72483;50.656;7.216;2024-01-15T06:24:28;99641.25;;;18.39;39.73
82743;BME280;72483;50.656;7.216;2024-01-15T06:26:55;99636.69;;;18.43;40.04
82743;BME280;72483;50.656;7.216;2024-01-15T06:29:21;99641.63;;;18.46;39.98
82743;BME280;72483;50.656;7.216;2024-01-15T06:31:49;99641.00;;;18.49;39.61
82743;BME280;72483;50.656;7.216;2024-01-15T06:34:15;99636.28;;;18.49;39.98
82743;BME280;72483;50.656;7.216;2024-01-15T06:36:42;99631.69;;;18.53;40.11
82743;BME280;72483;50.656;7.216;2024-01-15T06:39:09;99629.44;;;18.55;39.83
82743;BME280;72483;50.656;7.216;2024-01-15T06:41:37;99629.91;;;18.57;39.79
82743;BME280;72483;50.656;7.216;2024-01-15T06:44:08;99637.97;;;18.59;40.34
82743;BME280;72483;50.656;7.216;2024-01-15T06:46:35;99624.84;;;18.59;39.90
82743;BME280;72483;50.656;7.216;2024-01-15T06:49:01;99627.31;;;18.61;40.32
82743;BME280;72483;50.656;7.216;2024-01-15T06:51:29;99618.97;;;18.61;40.51
82743;BME280;72483;50.656;7.216;2024-01-15T06:53:55;99622.25;;;18.63;40.63
82743;BME280;72483;50.656;7.216;2024-01-15T06:56:22;99615.03;;;18.62;40.65
82743;BME280;72483;50.656;7.216;2024-01-15T06:58:50;99615.03;;;18.62;40.63
82743;BME280;72483;50.656;7.216;2024-01-15T07:01:16;99617.50;;;18.63;40.74
82743;BME280;72483;50.656;7.216;2024-01-15T07:03:43;99624.72;;;18.64;40.81
82743;BME280;72483;50.656;7.216;2024-01-15T07:06:10;99618.00;;;18.66;40.44
82743;BME280;72483;50.656;7.216;2024-01-15T07:08:36;99614.69;;;18.63;40.74
82743;BME280;72483;50.656;7.216;2024-01-15T07:11:03;99615.53;;;18.64;40.69
82743;BME280;72483;50.656;7.216;2024-01-15T07:13:30;99615.88;;;18.62;40.30
82743;BME280;72483;50.656;7.216;2024-01-15T07:15:58;99624.72;;;18.64;40.11
82743;BME280;72483;50.656;7.216;2024-01-15T07:18:25;99618.00;;;18.66;40.57
82743;BME280;72483;50.656;7.216;2024-01-15T07:20:51;99620.28;;;18.63;40.61
82743;BME280;72483;50.656;7.216;2024-01-15T07:23:18;99629.47;;;18.64;40.23
82743;BME280;72483;50.656;7.216;2024-01-15T07:25:45;99615.88;;;18.62;40.20
82743;BME280;72483;50.656;7.216;2024-01-15T07:28:11;99621.44;;;18.62;40.60
82743;BME280;72483;50.656;7.216;2024-01-15T07:30:38;99620.28;;;18.63;40.21
82743;BME280;72483;50.656;7.216;2024-01-15T07:33:06;99623.06;;;18.63;39.62
82743;BME280;72483;50.656;7.216;2024-01-15T07:35:32;99620.63;;;18.62;40.01
82743;BME280;72483;50.656;7.216;2024-01-15T07:37:59;99615.03;;;18.62;40.24
82743;BME280;72483;50.656;7.216;2024-01-15T07:40:25;99619.44;;;18.63;40.19
82743;BME280;72483;50.656;7.216;2024-01-15T07:42:52;99615.03;;;18.62;40.24
82743;BME280;72483;50.656;7.216;2024-01-15T07:45:18;99610.28;;;18.62;39.95
82743;BME280;72483;50.656;7.216;2024-01-15T07:47:45;99611.41;;;18.61;40.38
82743;BME280;72483;50.656;7.216;2024-01-15T07:50:13;99615.88;;;18.62;40.07
82743;BME280;72483;50.656;7.216;2024-01-15T07:52:40;99611.41;;;18.61;40.50
82743;BME280;72483;50.656;7.216;2024-01-15T07:55:07;99613.38;;;18.61;39.94
82743;BME280;72483;50.656;7.216;2024-01-15T07:57:33;99602.22;;;18.61;40.26
82743;BME280;72483;50.656;7.216;2024-01-15T08:00:01;99615.88;;;18.62;40.50
82743;BME280;72483;50.656;7.216;2024-01-15T08:02:30;99616.66;;;18.63;40.51
82743;BME280;72483;50.656;7.216;2024-01-15T08:04:57;99616.66;;;18.63;40.48
82743;BME280;72483;50.656;7.216;2024-01-15T08:07:25;99617.81;;;18.62;40.55
82743;BME280;72483;50.656;7.216;2024-01-15T08:09:52;99619.44;;;18.63;40.17
82743;BME280;72483;50.656;7.216;2024-01-15T08:12:18;99614.69;;;18.63;40.31
82743;BME280;72483;50.656;7.216;2024-01-15T08:14:45;99624.72;;;18.64;40.54
82743;BME280;72483;50.656;7.216;2024-01-15T08:17:11;99619.16;;;18.64;40.70
82743;BME280;72483;50.656;7.216;2024-01-15T08:19:38;99619.97;;;18.65;40.58
82743;BME280;72483;50.656;7.216;2024-01-15T08:22:06;99613.88;;;18.63;40.21
82743;BME280;72483;50.656;7.216;2024-01-15T08:24:34;99617.81;;;18.62;39.88
82743;BME280;72483;50.656;7.216;2024-01-15T08:27:00;99621.75;;;18.61;40.00
82743;BME280;72483;50.656;7.216;2024-01-15T08:29:27;99621.44;;;18.62;40.43
82743;BME280;72483;50.656;7.216;2024-01-15T08:31:53;99614.50;;;18.60;39.84
82743;BME280;72483;50.656;7.216;2024-01-15T08:34:20;99611.72;;;18.60;40.34
82743;BME280;72483;50.656;7.216;2024-01-15T08:36:46;99614.84;;;18.58;40.18
82743;BME280;72483;50.656;7.216;2024-01-15T08:39:13;99614.03;;;18.58;40.05
82743;BME280;72483;50.656;7.216;2024-01-15T08:41:41;99615.97;;;18.57;40.10
82743;BME280;72483;50.656;7.216;2024-01-15T08:44:07;99621.88;;;18.56;40.07
82743;BME280;72483;50.656;7.216;2024-01-15T08:46:34;99623.03;;;18.55;39.90
82743;BME280;72483;50.656;7.216;2024-01-15T08:49:00;99614.97;;;18.53;39.84
82743;BME280;72483;50.656;7.216;2024-01-15T08:51:28;99620.88;;;18.52;40.34
82743;BME280;72483;50.656;7.216;2024-01-15T08:53:55;99619.22;;;18.51;40.00
82743;BME280;72483;50.656;7.216;2024-01-15T08:56:21;99619.81;;;18.48;40.04
82743;BME280;72483;50.656;7.216;2024-01-15T08:58:49;99619.75;;;18.53;40.64
82743;BME280;72483;50.656;7.216;2024-01-15T09:01:16;99612.34;;;18.57;40.08
82743;BME280;72483;50.656;7.216;2024-01-15T09:03:42;99611.41;;;18.61;40.37
82743;BME280;72483;50.656;7.216;2024-01-15T09:06:10;99615.47;;;18.55;40.41
82743;BME280;72483;50.656;7.216;2024-01-15T09:08:36;99618.56;;;18.54;40.44
82743;BME280;72483;50.656;7.216;2024-01-15T09:11:03;99623.50;;;18.57;41.99
82743;BME280;72483;50.656;7.216;2024-01-15T09:13:29;99617.75;;;18.53;42.15
82743;BME280;72483;50.656;7.216;2024-01-15T09:15:57;99617.25;;;18.51;42.07
82743;BME280;72483;50.656;7.216;2024-01-15T09:18:24;99618.38;;;18.50;41.72
82743;BME280;72483;50.656;7.216;2024-01-15T09:20:50;99618.69;;;18.49;41.78
82743;BME280;72483;50.656;7.216;2024-01-15T09:23:17;99619.22;;;18.51;41.69
82743;BME280;72483;50.656;7.216;2024-01-15T09:25:43;99633.16;;;18.51;41.85
82743;BME280;72483;50.656;7.216;2024-01-15T09:28:10;99622.81;;;18.51;41.46
82743;BME280;72483;50.656;7.216;2024-01-15T09:30:36;99622.00;;;18.51;41.17
82743;BME280;72483;50.656;7.216;2024-01-15T09:33:04;99612.00;;;18.50;41.24
82743;BME280;72483;50.656;7.216;2024-01-15T09:35:31;99615.59;;;18.50;41.02
82743;BME280;72483;50.656;7.216;2024-01-15T09:37:57;99623.97;;;18.50;41.50
82743;BME280;72483;50.656;7.216;2024-01-15T09:40:25;99616.41;;;18.51;41.35
82743;BME280;72483;50.656;7.216;2024-01-15T09:42:54;99614.97;;;18.53;41.29
82743;BME280;72483;50.656;7.216;2024-01-15T09:45:21;99619.41;;;18.54;41.70
82743;BME280;72483;50.656;7.216;2024-01-15T09:47:47;99609.06;;;18.55;41.37
82743;BME280;72483;50.656;7.216;2024-01-15T09:50:15;99613.34;;;18.52;41.63
82743;BME280;72483;50.656;7.216;2024-01-15T09:52:43;99614.78;;;18.50;41.88
82743;BME280;72483;50.656;7.216;2024-01-15T09:55:09;99609.78;;;18.47;41.63
82743;BME280;72483;50.656;7.216;2024-01-15T09:57:37;99626.22;;;18.48;41.53
82743;BME280;72483;50.656;7.216;2024-01-15T10:00:06;99633.25;;;18.46;41.58
82743;BME280;72483;50.656;7.216;2024-01-15T10:02:36;99634.88;;;18.47;41.35
82743;BME280;72483;50.656;7.216;2024-01-15T10:05:03;99627.69;;;18.46;41.42
82743;BME280;72483;50.656;7.216;2024-01-15T10:07:35;99616.84;;;18.44;41.60
82743;BME280;72483;50.656;7.216;2024-01-15T10:10:02;99628.81;;;18.45;41.58
82743;BME280;72483;50.656;7.216;2024-01-15T10:12:49;99618.78;;;18.44;41.42
82743;BME280;72483;50.656;7.216;2024-01-15T10:15:15;99618.00;;;18.43;41.01
82743;BME280;72483;50.656;7.216;2024-01-15T10:17:42;99617.16;;;18.43;41.29
82743;BME280;72483;50.656;7.216;2024-01-15T10:20:10;99616.34;;;18.42;41.45
82743;BME280;72483;50.656;7.216;2024-01-15T10:22:40;99622.75;;;18.43;41.06
82743;BME280;72483;50.656;7.216;2024-01-15T10:25:10;99623.25;;;18.45;41.08
82743;BME280;72483;50.656;7.216;2024-01-15T10:27:36;99618.00;;;18.43;41.22
82743;BME280;72483;50.656;7.216;2024-01-15T10:30:04;99632.72;;;18.44;40.96
82743;BME280;72483;50.656;7.216;2024-01-15T10:32:31;99628.31;;;18.43;40.98
82743;BME280;72483;50.656;7.216;2024-01-15T10:34:58;99629.31;;;18.47;40.88
82743;BME280;72483;50.656;7.216;2024-01-15T10:37:24;99631.31;;;18.46;41.03
82743;BME280;72483;50.656;7.216;2024-01-15T10:39:53;99628.81;;;18.45;41.07
82743;BME280;72483;50.656;7.216;2024-01-15T10:42:20;99625.19;;;18.44;40.87
82743;BME280;72483;50.656;7.216;2024-01-15T10:44:46;99619.81;;;18.48;41.01
82743;BME280;72483;50.656;7.216;2024-01-15T10:47:13;99629.66;;;18.45;40.90
82743;BME280;72483;50.656;7.216;2024-01-15T10:49:40;99619.97;;;18.43;40.58
82743;BME280;72483;50.656;7.216;2024-01-15T10:52:07;99631.09;;;18.43;41.07
82743;BME280;72483;50.656;7.216;2024-01-15T10:54:34;99623.38;;;18.40;41.00
82743;BME280;72483;50.656;7.216;2024-01-15T10:57:04;99623.88;;;18.42;40.79
82743;BME280;72483;50.656;7.216;2024-01-15T10:59:31;99625.72;;;18.46;40.98
82743;BME280;72483;50.656;7.216;2024-01-15T11:01:59;99623.25;;;18.45;40.71
82743;BME280;72483;50.656;7.216;2024-01-15T11:04:26;99618.69;;;18.49;41.04
82743;BME280;72483;50.656;7.216;2024-01-15T11:06:54;99617.03;;;18.48;41.52
82743;BME280;72483;50.656;7.216;2024-01-15T11:09:23;99612.59;;;18.47;41.27
82743;BME280;72483;50.656;7.216;2024-01-15T11:11:52;99612.59;;;18.47;41.34
82743;BME280;72483;50.656;7.216;2024-01-15T11:14:38;99620.94;;;18.47;41.52
82743;BME280;72483;50.656;7.216;2024-01-15T11:17:05;99622.59;;;18.48;41.31
82743;BME280;72483;50.656;7.216;2024-01-15T11:19:36;99628.19;;;18.48;41.16
82743;BME280;72483;50.656;7.216;2024-01-15T11:22:03;99628.50;;;18.46;41.23
82743;BME280;72483;50.656;7.216;2024-01-15T11:24:38;99627.69;;;18.46;41.19
82743;BME280;72483;50.656;7.216;2024-01-15T11:27:05;99628.19;;;18.48;41.45
82743;BME280;72483;50.656;7.216;2024-01-15T11:29:33;99619.81;;;18.48;41.34
82743;BME280;72483;50.656;7.216;2024-01-15T11:32:03;99620.66;;;18.48;41.38
82743;BME280;72483;50.656;7.216;2024-01-15T11:34:49;99628.09;;;18.53;41.40
82743;BME280;72483;50.656;7.216;2024-01-15T11:37:16;99623.03;;;18.55;41.30
82743;BME280;72483;50.656;7.216;2024-01-15T11:39:43;99633.84;;;18.56;41.36
82743;BME280;72483;50.656;7.216;2024-01-15T11:42:11;99628.59;;;18.55;41.10
82743;BME280;72483;50.656;7.216;2024-01-15T11:44:38;99628.59;;;18.55;41.17
82743;BME280;72483;50.656;7.216;2024-01-15T11:47:07;99627.78;;;18.54;41.34
82743;BME280;72483;50.656;7.216;2024-01-15T11:49:56;99630.25;;;18.56;41.05
82743;BME280;72483;50.656;7.216;2024-01-15T11:52:25;99641.56;;;18.59;41.05
82743;BME280;72483;50.656;7.216;2024-01-15T11:55:06;99640.44;;;18.60;41.25
82743;BME280;72483;50.656;7.216;2024-01-15T11:57:41;99637.66;;;18.60;41.23
82743;BME280;72483;50.656;7.216;2024-01-15T12:00:10;99630.41;;;18.59;41.31
82743;BME280;72483;50.656;7.216;2024-01-15T12:02:39;99641.13;;;18.66;41.26
82743;BME280;72483;50.656;7.216;2024-01-15T12:05:07;99638.03;;;18.68;41.00
82743;BME280;72483;50.656;7.216;2024-01-15T12:07:33;99646.78;;;18.75;40.88
82743;BME280;72483;50.656;7.216;2024-01-15T12:10:00;99655.00;;;18.80;40.94
82743;BME280;72483;50.656;7.216;2024-01-15T12:12:36;99643.34;;;18.78;41.20
82743;BME280;72483;50.656;7.216;2024-01-15T12:15:06;99638.75;;;18.82;40.82
82743;BME280;72483;50.656;7.216;2024-01-15T12:17:34;99641.56;;;18.82;41.19
82743;BME280;72483;50.656;7.216;2024-01-15T12:20:03;99641.25;;;18.83;40.80
82743;BME280;72483;50.656;7.216;2024-01-15T12:22:29;99646.19;;;18.86;41.10
82743;BME280;72483;50.656;7.216;2024-01-15T12:24:56;99638.66;;;18.87;40.58
82743;BME280;72483;50.656;7.216;2024-01-15T12:27:23;99641.44;;;18.87;40.94
82743;BME280;72483;50.656;7.216;2024-01-15T12:29:50;99646.69;;;18.88;40.50
82743;BME280;72483;50.656;7.216;2024-01-15T12:32:18;99648.69;;;18.88;40.71
82743;BME280;72483;50.656;7.216;2024-01-15T12:34:45;99638.84;;;18.90;40.73
82743;BME280;72483;50.656;7.216;2024-01-15T12:37:13;99637.66;;;18.91;40.98
82743;BME280;72483;50.656;7.216;2024-01-15T12:39:42;99638.94;;;18.85;41.02
82743;BME280;72483;50.656;7.216;2024-01-15T12:42:09;99631.75;;;18.84;40.44
82743;BME280;72483;50.656;7.216;2024-01-15T12:44:35;99631.59;;;18.89;40.84
82743;BME280;72483;50.656;7.216;2024-01-15T12:47:03;99631.41;;;18.86;41.09
82743;BME280;72483;50.656;7.216;2024-01-15T12:49:30;99628.13;;;18.84;41.10
82743;BME280;72483;50.656;7.216;2024-01-15T12:51:57;99631.94;;;18.88;40.72
82743;BME280;72483;50.656;7.216;2024-01-15T12:54:25;99633.56;;;18.89;40.62
82743;BME280;72483;50.656;7.216;2024-01-15T12:56:52;99643.88;;;18.88;40.67
82743;BME280;72483;50.656;7.216;2024-01-15T12:59:19;99649.16;;;18.90;41.10